sensor_id;sensor_type;location;lat;lon;timestamp;P1;durP1;ratioP1;P2;durP2;ratioP2
49548;SDS011;35450;44.518;7.466;2024-01-16T00:02:21;3.63;;;2.33;;
49548;SDS011;35450;44.518;7.466;2024-01-16T00:05:25;6.43;;;2.97;;
49548;SDS011;35450;44.518;7.466;2024-01-16T00:08:29;4.57;;;2.42;;
49548;SDS011;35450;44.518;7.466;2024-01-16T00:11:33;7.38;;;2.20;;
49548;SDS011;35450;44.518;7.466;2024-01-16T00:14:37;4.07;;;2.58;;
49548;SDS011;35450;44.518;7.466;2024-01-16T00:17:41;7.97;;;3.40;;
49548;SDS011;35450;44.518;7.466;2024-01-16T00:20:45;10.32;;;6.28;;
49548;SDS011;35450;44.518;7.466;2024-01-16T00:23:49;12.57;;;6.95;;
49548;SDS011;35450;44.518;7.466;2024-01-16T00:26:53;10.38;;;5.75;;
49548;SDS011;35450;44.518;7.466;2024-01-16T00:29:57;11.05;;;6.05;;
49548;SDS011;35450;44.518;7.466;2024-01-16T00:33:01;10.55;;;6.00;;
49548;SDS011;35450;44.518;7.466;2024-01-16T00:36:06;14.70;;;8.68;;
49548;SDS011;35450;44.518;7.466;2024-01-16T00:39:10;11.50;;;6.97;;
49548;SDS011;35450;44.518;7.466;2024-01-16T00:42:14;11.80;;;5.82;;
49548;SDS011;35450;44.518;7.466;2024-01-16T00:45:18;5.05;;;3.45;;
49548;SDS011;35450;44.518;7.466;2024-01-16T00:48:22;5.47;;;3.22;;
49548;SDS011;35450;44.518;7.466;2024-01-16T00:51:26;8.15;;;3.05;;
49548;SDS011;35450;44.518;7.466;2024-01-16T00:54:30;2.67;;;1.30;;
49548;SDS011;35450;44.518;7.466;2024-01-16T00:57:34;1.52;;;0.85;;
49548;SDS011;35450;44.518;7.466;2024-01-16T01:00:38;1.58;;;0.98;;
49548;SDS011;35450;44.518;7.466;2024-01-16T01:03:42;4.10;;;1.08;;
49548;SDS011;35450;44.518;7.466;2024-01-16T01:06:46;3.20;;;1.27;;
49548;SDS011;35450;44.518;7.466;2024-01-16T01:09:50;2.75;;;1.65;;
49548;SDS011;35450;44.518;7.466;2024-01-16T01:12:54;3.35;;;1.30;;
49548;SDS011;35450;44.518;7.466;2024-01-16T01:15:58;3.40;;;2.00;;
49548;SDS011;35450;44.518;7.466;2024-01-16T01:19:02;2.10;;;1.38;;
49548;SDS011;35450;44.518;7.466;2024-01-16T01:22:06;3.42;;;1.92;;
49548;SDS011;35450;44.518;7.466;2024-01-16T01:25:11;3.72;;;1.80;;
49548;SDS011;35450;44.518;7.466;2024-01-16T01:28:15;6.03;;;2.88;;
49548;SDS011;35450;44.518;7.466;2024-01-16T01:31:18;4.18;;;2.58;;
49548;SDS011;35450;44.518;7.466;2024-01-16T01:34:22;5.65;;;3.67;;
49548;SDS011;35450;44.518;7.466;2024-01-16T01:37:26;6.50;;;4.20;;
49548;SDS011;35450;44.518;7.466;2024-01-16T01:40:30;6.47;;;3.80;;
49548;SDS011;35450;44.518;7.466;2024-01-16T01:43:34;5.65;;;3.63;;
49548;SDS011;35450;44.518;7.466;2024-01-16T01:46:38;8.27;;;4.00;;
49548;SDS011;35450;44.518;7.466;2024-01-16T01:49:43;6.50;;;4.00;;
49548;SDS011;35450;44.518;7.466;2024-01-16T01:52:47;7.47;;;3.40;;
49548;SDS011;35450;44.518;7.466;2024-01-16T01:55:51;7.30;;;3.42;;
49548;SDS011;35450;44.518;7.466;2024-01-16T01:58:57;4.78;;;2.97;;
49548;SDS011;35450;44.518;7.466;2024-01-16T02:02:04;8.10;;;3.05;;
49548;SDS011;35450;44.518;7.466;2024-01-16T02:05:07;7.72;;;3.53;;
49548;SDS011;35450;44.518;7.466;2024-01-16T02:08:12;8.27;;;3.50;;
49548;SDS011;35450;44.518;7.466;2024-01-16T02:11:16;3.55;;;2.10;;
49548;SDS011;35450;44.518;7.466;2024-01-16T02:14:20;6.38;;;3.17;;
49548;SDS011;35450;44.518;7.466;2024-01-16T02:17:24;4.05;;;2.60;;
49548;SDS011;35450;44.518;7.466;2024-01-16T02:20:28;3.95;;;2.08;;
49548;SDS011;35450;44.518;7.466;2024-01-16T02:23:32;11.13;;;2.58;;
49548;SDS011;35450;44.518;7.466;2024-01-16T02:26:37;5.10;;;2.72;;
49548;SDS011;35450;44.518;7.466;2024-01-16T02:29:41;4.10;;;1.83;;
49548;SDS011;35450;44.518;7.466;2024-01-16T02:32:48;6.85;;;2.08;;
49548;SDS011;35450;44.518;7.466;2024-01-16T02:35:52;3.13;;;1.85;;
49548;SDS011;35450;44.518;7.466;2024-01-16T02:38:56;6.93;;;3.13;;
49548;SDS011;35450;44.518;7.466;2024-01-16T02:42:00;4.80;;;2.30;;
49548;SDS011;35450;44.518;7.466;2024-01-16T02:45:05;5.32;;;3.08;;
49548;SDS011;35450;44.518;7.466;2024-01-16T02:48:09;5.85;;;2.67;;
49548;SDS011;35450;44.518;7.466;2024-01-16T02:51:13;4.03;;;1.95;;
49548;SDS011;35450;44.518;7.466;2024-01-16T02:54:17;6.78;;;2.83;;
49548;SDS011;35450;44.518;7.466;2024-01-16T02:57:21;9.82;;;3.45;;
49548;SDS011;35450;44.518;7.466;2024-01-16T03:00:25;8.02;;;3.00;;
49548;SDS011;35450;44.518;7.466;2024-01-16T03:03:29;11.05;;;2.83;;
49548;SDS011;35450;44.518;7.466;2024-01-16T03:06:33;7.45;;;3.30;;
49548;SDS011;35450;44.518;7.466;2024-01-16T03:09:37;4.88;;;2.20;;
49548;SDS011;35450;44.518;7.466;2024-01-16T03:12:42;8.40;;;3.28;;
49548;SDS011;35450;44.518;7.466;2024-01-16T03:15:45;5.78;;;3.33;;
49548;SDS011;35450;44.518;7.466;2024-01-16T03:18:49;5.45;;;2.97;;
49548;SDS011;35450;44.518;7.466;2024-01-16T03:21:53;7.22;;;4.22;;
49548;SDS011;35450;44.518;7.466;2024-01-16T03:24:57;3.80;;;2.67;;
49548;SDS011;35450;44.518;7.466;2024-01-16T03:28:02;6.45;;;2.40;;
49548;SDS011;35450;44.518;7.466;2024-01-16T03:31:05;6.93;;;3.45;;
49548;SDS011;35450;44.518;7.466;2024-01-16T03:34:09;6.65;;;3.25;;
49548;SDS011;35450;44.518;7.466;2024-01-16T03:37:14;5.53;;;2.75;;
49548;SDS011;35450;44.518;7.466;2024-01-16T03:40:18;6.22;;;3.55;;
49548;SDS011;35450;44.518;7.466;2024-01-16T03:43:22;9.65;;;3.97;;
49548;SDS011;35450;44.518;7.466;2024-01-16T03:46:26;6.05;;;2.88;;
49548;SDS011;35450;44.518;7.466;2024-01-16T03:49:30;5.63;;;3.10;;
49548;SDS011;35450;44.518;7.466;2024-01-16T03:52:34;6.95;;;4.07;;
49548;SDS011;35450;44.518;7.466;2024-01-16T03:55:38;7.65;;;4.03;;
49548;SDS011;35450;44.518;7.466;2024-01-16T03:58:42;6.97;;;3.78;;
49548;SDS011;35450;44.518;7.466;2024-01-16T04:01:46;6.95;;;3.22;;
49548;SDS011;35450;44.518;7.466;2024-01-16T04:04:51;8.95;;;4.20;;
49548;SDS011;35450;44.518;7.466;2024-01-16T04:07:56;7.97;;;4.40;;
49548;SDS011;35450;44.518;7.466;2024-01-16T04:11:00;7.60;;;4.65;;
49548;SDS011;35450;44.518;7.466;2024-01-16T04:14:04;14.77;;;5.35;;
49548;SDS011;35450;44.518;7.466;2024-01-16T04:17:08;13.25;;;6.00;;
49548;SDS011;35450;44.518;7.466;2024-01-16T04:20:12;10.75;;;6.10;;
49548;SDS011;35450;44.518;7.466;2024-01-16T04:23:17;12.10;;;5.93;;
49548;SDS011;35450;44.518;7.466;2024-01-16T04:26:21;16.33;;;6.78;;
49548;SDS011;35450;44.518;7.466;2024-01-16T04:29:25;8.88;;;5.38;;
49548;SDS011;35450;44.518;7.466;2024-01-16T04:32:29;11.02;;;5.40;;
49548;SDS011;35450;44.518;7.466;2024-01-16T04:35:33;12.30;;;6.95;;
49548;SDS011;35450;44.518;7.466;2024-01-16T04:38:37;11.48;;;6.55;;
49548;SDS011;35450;44.518;7.466;2024-01-16T04:41:41;12.80;;;6.40;;
49548;SDS011;35450;44.518;7.466;2024-01-16T04:44:45;11.10;;;5.65;;
49548;SDS011;35450;44.518;7.466;2024-01-16T04:47:48;12.20;;;6.80;;
49548;SDS011;35450;44.518;7.466;2024-01-16T04:50:53;10.98;;;5.88;;
49548;SDS011;35450;44.518;7.466;2024-01-16T04:53:58;11.20;;;5.57;;
49548;SDS011;35450;44.518;7.466;2024-01-16T04:57:02;13.68;;;5.55;;
49548;SDS011;35450;44.518;7.466;2024-01-16T05:00:06;9.13;;;5.13;;
49548;SDS011;35450;44.518;7.466;2024-01-16T05:03:10;11.38;;;5.18;;
49548;SDS011;35450;44.518;7.466;2024-01-16T05:06:15;8.07;;;4.25;;
49548;SDS011;35450;44.518;7.466;2024-01-16T05:09:19;7.75;;;4.80;;
49548;SDS011;35450;44.518;7.466;2024-01-16T05:12:23;10.32;;;5.00;;
49548;SDS011;35450;44.518;7.466;2024-01-16T05:15:27;13.80;;;8.60;;
49548;SDS011;35450;44.518;7.466;2024-01-16T05:18:31;13.18;;;7.32;;
49548;SDS011;35450;44.518;7.466;2024-01-16T05:21:40;16.58;;;8.13;;
49548;SDS011;35450;44.518;7.466;2024-01-16T05:24:44;12.27;;;7.25;;
49548;SDS011;35450;44.518;7.466;2024-01-16T05:27:48;11.45;;;6.75;;
49548;SDS011;35450;44.518;7.466;2024-01-16T05:30:52;18.20;;;8.70;;
49548;SDS011;35450;44.518;7.466;2024-01-16T05:33:56;12.35;;;7.18;;
49548;SDS011;35450;44.518;7.466;2024-01-16T05:37:01;13.02;;;6.90;;
49548;SDS011;35450;44.518;7.466;2024-01-16T05:40:06;13.00;;;8.18;;
49548;SDS011;35450;44.518;7.466;2024-01-16T05:43:11;12.05;;;6.45;;
49548;SDS011;35450;44.518;7.466;2024-01-16T05:46:15;11.93;;;6.30;;
49548;SDS011;35450;44.518;7.466;2024-01-16T05:49:19;11.85;;;6.50;;
49548;SDS011;35450;44.518;7.466;2024-01-16T05:52:23;22.77;;;14.88;;
49548;SDS011;35450;44.518;7.466;2024-01-16T05:55:28;18.23;;;8.90;;
49548;SDS011;35450;44.518;7.466;2024-01-16T05:58:35;24.02;;;12.73;;
49548;SDS011;35450;44.518;7.466;2024-01-16T06:01:42;33.42;;;17.52;;
49548;SDS011;35450;44.518;7.466;2024-01-16T06:04:46;47.83;;;26.08;;
49548;SDS011;35450;44.518;7.466;2024-01-16T06:07:50;37.83;;;20.42;;
49548;SDS011;35450;44.518;7.466;2024-01-16T06:10:54;34.53;;;19.17;;
49548;SDS011;35450;44.518;7.466;2024-01-16T06:13:58;25.23;;;13.38;;
49548;SDS011;35450;44.518;7.466;2024-01-16T06:17:05;30.45;;;13.40;;
49548;SDS011;35450;44.518;7.466;2024-01-16T06:20:09;22.42;;;12.30;;
49548;SDS011;35450;44.518;7.466;2024-01-16T06:23:14;31.50;;;16.08;;
49548;SDS011;35450;44.518;7.466;2024-01-16T06:26:18;25.60;;;14.63;;
49548;SDS011;35450;44.518;7.466;2024-01-16T06:29:22;20.75;;;10.20;;
49548;SDS011;35450;44.518;7.466;2024-01-16T06:32:26;21.80;;;13.00;;
49548;SDS011;35450;44.518;7.466;2024-01-16T06:35:30;17.77;;;9.93;;
49548;SDS011;35450;44.518;7.466;2024-01-16T06:38:33;13.73;;;8.05;;
49548;SDS011;35450;44.518;7.466;2024-01-16T06:41:37;12.20;;;6.78;;
49548;SDS011;35450;44.518;7.466;2024-01-16T06:44:42;45.28;;;11.55;;
49548;SDS011;35450;44.518;7.466;2024-01-16T06:47:46;26.35;;;9.25;;
49548;SDS011;35450;44.518;7.466;2024-01-16T06:50:49;13.75;;;7.03;;
49548;SDS011;35450;44.518;7.466;2024-01-16T06:53:53;18.52;;;9.68;;
49548;SDS011;35450;44.518;7.466;2024-01-16T06:56:57;30.02;;;13.20;;
49548;SDS011;35450;44.518;7.466;2024-01-16T07:00:01;44.85;;;18.48;;
49548;SDS011;35450;44.518;7.466;2024-01-16T07:03:07;21.25;;;11.93;;
49548;SDS011;35450;44.518;7.466;2024-01-16T07:06:11;15.88;;;8.23;;
49548;SDS011;35450;44.518;7.466;2024-01-16T07:09:15;24.90;;;11.30;;
49548;SDS011;35450;44.518;7.466;2024-01-16T07:12:21;29.98;;;12.75;;
49548;SDS011;35450;44.518;7.466;2024-01-16T07:15:25;32.45;;;16.33;;
49548;SDS011;35450;44.518;7.466;2024-01-16T07:18:30;25.67;;;13.90;;
49548;SDS011;35450;44.518;7.466;2024-01-16T07:21:33;56.85;;;34.08;;
49548;SDS011;35450;44.518;7.466;2024-01-16T07:24:38;31.30;;;20.42;;
49548;SDS011;35450;44.518;7.466;2024-01-16T07:27:42;52.83;;;37.70;;
49548;SDS011;35450;44.518;7.466;2024-01-16T07:30:52;22.20;;;12.73;;
49548;SDS011;35450;44.518;7.466;2024-01-16T07:33:56;50.65;;;34.90;;
49548;SDS011;35450;44.518;7.466;2024-01-16T07:37:00;53.53;;;29.30;;
49548;SDS011;35450;44.518;7.466;2024-01-16T07:40:05;29.85;;;17.00;;
49548;SDS011;35450;44.518;7.466;2024-01-16T07:43:09;29.20;;;17.17;;
49548;SDS011;35450;44.518;7.466;2024-01-16T07:46:13;32.95;;;20.27;;
49548;SDS011;35450;44.518;7.466;2024-01-16T07:49:17;35.90;;;18.63;;
49548;SDS011;35450;44.518;7.466;2024-01-16T07:52:22;32.42;;;18.35;;
49548;SDS011;35450;44.518;7.466;2024-01-16T07:55:26;48.92;;;25.95;;
49548;SDS011;35450;44.518;7.466;2024-01-16T07:58:30;40.33;;;22.67;;
49548;SDS011;35450;44.518;7.466;2024-01-16T08:01:34;39.42;;;21.65;;
49548;SDS011;35450;44.518;7.466;2024-01-16T08:04:38;51.25;;;27.75;;
49548;SDS011;35450;44.518;7.466;2024-01-16T08:07:43;48.40;;;27.50;;
49548;SDS011;35450;44.518;7.466;2024-01-16T08:10:46;45.33;;;24.27;;
49548;SDS011;35450;44.518;7.466;2024-01-16T08:13:51;47.15;;;25.02;;
49548;SDS011;35450;44.518;7.466;2024-01-16T08:16:55;50.80;;;28.60;;
49548;SDS011;35450;44.518;7.466;2024-01-16T08:19:59;51.38;;;30.38;;
49548;SDS011;35450;44.518;7.466;2024-01-16T08:23:03;51.45;;;29.20;;
49548;SDS011;35450;44.518;7.466;2024-01-16T08:26:07;50.30;;;27.33;;
49548;SDS011;35450;44.518;7.466;2024-01-16T08:29:11;52.60;;;29.33;;
49548;SDS011;35450;44.518;7.466;2024-01-16T08:32:16;50.70;;;29.27;;
49548;SDS011;35450;44.518;7.466;2024-01-16T08:35:21;53.67;;;30.23;;
49548;SDS011;35450;44.518;7.466;2024-01-16T08:38:25;54.28;;;31.80;;
49548;SDS011;35450;44.518;7.466;2024-01-16T08:41:29;56.03;;;31.00;;
49548;SDS011;35450;44.518;7.466;2024-01-16T08:44:33;52.42;;;28.92;;
49548;SDS011;35450;44.518;7.466;2024-01-16T08:47:37;55.40;;;30.88;;
49548;SDS011;35450;44.518;7.466;2024-01-16T08:50:41;50.55;;;29.45;;
49548;SDS011;35450;44.518;7.466;2024-01-16T08:53:45;49.42;;;28.73;;
49548;SDS011;35450;44.518;7.466;2024-01-16T08:56:49;47.85;;;28.77;;
49548;SDS011;35450;44.518;7.466;2024-01-16T08:59:53;55.28;;;32.40;;
49548;SDS011;35450;44.518;7.466;2024-01-16T09:02:57;73.20;;;39.25;;
49548;SDS011;35450;44.518;7.466;2024-01-16T09:06:01;81.78;;;43.58;;
49548;SDS011;35450;44.518;7.466;2024-01-16T09:09:06;89.32;;;47.78;;
49548;SDS011;35450;44.518;7.466;2024-01-16T09:12:10;95.85;;;49.35;;
49548;SDS011;35450;44.518;7.466;2024-01-16T09:15:14;84.43;;;45.28;;
49548;SDS011;35450;44.518;7.466;2024-01-16T09:18:19;88.78;;;46.53;;
49548;SDS011;35450;44.518;7.466;2024-01-16T09:21:23;102.10;;;49.65;;
49548;SDS011;35450;44.518;7.466;2024-01-16T09:24:27;125.82;;;60.80;;
49548;SDS011;35450;44.518;7.466;2024-01-16T09:27:32;131.93;;;61.97;;
49548;SDS011;35450;44.518;7.466;2024-01-16T09:30:36;132.85;;;63.13;;
49548;SDS011;35450;44.518;7.466;2024-01-16T09:33:40;131.05;;;62.30;;
49548;SDS011;35450;44.518;7.466;2024-01-16T09:36:45;134.85;;;60.13;;
49548;SDS011;35450;44.518;7.466;2024-01-16T09:39:49;135.32;;;62.10;;
49548;SDS011;35450;44.518;7.466;2024-01-16T09:42:54;133.52;;;61.05;;
49548;SDS011;35450;44.518;7.466;2024-01-16T09:46:00;130.27;;;63.33;;
49548;SDS011;35450;44.518;7.466;2024-01-16T09:49:05;130.18;;;60.90;;
49548;SDS011;35450;44.518;7.466;2024-01-16T09:52:10;133.27;;;62.22;;
49548;SDS011;35450;44.518;7.466;2024-01-16T09:55:14;140.85;;;64.35;;
49548;SDS011;35450;44.518;7.466;2024-01-16T09:58:19;142.60;;;64.93;;
49548;SDS011;35450;44.518;7.466;2024-01-16T10:01:26;141.70;;;65.78;;
49548;SDS011;35450;44.518;7.466;2024-01-16T10:04:32;152.80;;;65.93;;
49548;SDS011;35450;44.518;7.466;2024-01-16T10:07:37;142.48;;;67.07;;
49548;SDS011;35450;44.518;7.466;2024-01-16T10:10:42;144.95;;;66.90;;
49548;SDS011;35450;44.518;7.466;2024-01-16T10:13:46;139.65;;;66.50;;
49548;SDS011;35450;44.518;7.466;2024-01-16T10:16:55;147.48;;;64.82;;
49548;SDS011;35450;44.518;7.466;2024-01-16T10:20:03;103.63;;;48.33;;
49548;SDS011;35450;44.518;7.466;2024-01-16T10:23:08;122.03;;;57.20;;
49548;SDS011;35450;44.518;7.466;2024-01-16T10:26:12;117.68;;;53.72;;
49548;SDS011;35450;44.518;7.466;2024-01-16T10:29:17;105.82;;;49.88;;
49548;SDS011;35450;44.518;7.466;2024-01-16T10:32:27;94.65;;;48.63;;
49548;SDS011;35450;44.518;7.466;2024-01-16T10:35:35;92.80;;;47.63;;
49548;SDS011;35450;44.518;7.466;2024-01-16T10:38:39;96.05;;;48.45;;
49548;SDS011;35450;44.518;7.466;2024-01-16T10:41:53;101.15;;;50.30;;
49548;SDS011;35450;44.518;7.466;2024-01-16T10:44:59;94.90;;;48.33;;
49548;SDS011;35450;44.518;7.466;2024-01-16T10:48:04;92.60;;;49.58;;
49548;SDS011;35450;44.518;7.466;2024-01-16T10:51:10;108.13;;;55.13;;
49548;SDS011;35450;44.518;7.466;2024-01-16T10:54:17;107.15;;;53.40;;
49548;SDS011;35450;44.518;7.466;2024-01-16T10:57:21;100.47;;;51.03;;
49548;SDS011;35450;44.518;7.466;2024-01-16T11:00:25;100.18;;;52.00;;
49548;SDS011;35450;44.518;7.466;2024-01-16T11:03:38;100.68;;;49.67;;
49548;SDS011;35450;44.518;7.466;2024-01-16T11:06:52;104.97;;;51.95;;
49548;SDS011;35450;44.518;7.466;2024-01-16T11:09:57;105.13;;;51.40;;
49548;SDS011;35450;44.518;7.466;2024-01-16T11:13:02;100.30;;;51.15;;
49548;SDS011;35450;44.518;7.466;2024-01-16T11:16:08;98.65;;;47.30;;
49548;SDS011;35450;44.518;7.466;2024-01-16T11:19:14;103.50;;;49.47;;
49548;SDS011;35450;44.518;7.466;2024-01-16T11:22:20;108.97;;;53.05;;
49548;SDS011;35450;44.518;7.466;2024-01-16T11:25:32;121.03;;;63.38;;
49548;SDS011;35450;44.518;7.466;2024-01-16T11:28:37;108.10;;;56.38;;
49548;SDS011;35450;44.518;7.466;2024-01-16T11:31:41;108.40;;;53.15;;
49548;SDS011;35450;44.518;7.466;2024-01-16T11:37:52;102.75;;;48.47;;
49548;SDS011;35450;44.518;7.466;2024-01-16T11:40:57;106.50;;;52.78;;
49548;SDS011;35450;44.518;7.466;2024-01-16T11:44:00;94.03;;;48.47;;
49548;SDS011;35450;44.518;7.466;2024-01-16T11:47:05;107.00;;;51.47;;
49548;SDS011;35450;44.518;7.466;2024-01-16T11:50:10;111.05;;;52.60;;
49548;SDS011;35450;44.518;7.466;2024-01-16T11:53:35;117.72;;;55.97;;
49548;SDS011;35450;44.518;7.466;2024-01-16T12:00:03;130.63;;;65.60;;
49548;SDS011;35450;44.518;7.466;2024-01-16T12:03:20;110.80;;;52.33;;
49548;SDS011;35450;44.518;7.466;2024-01-16T12:06:25;109.25;;;50.75;;
49548;SDS011;35450;44.518;7.466;2024-01-16T12:09:29;117.68;;;57.03;;
49548;SDS011;35450;44.518;7.466;2024-01-16T12:12:33;114.70;;;56.72;;
49548;SDS011;35450;44.518;7.466;2024-01-16T12:15:38;142.00;;;74.20;;
49548;SDS011;35450;44.518;7.466;2024-01-16T12:18:42;122.97;;;56.17;;
49548;SDS011;35450;44.518;7.466;2024-01-16T12:21:47;113.70;;;51.65;;
49548;SDS011;35450;44.518;7.466;2024-01-16T12:24:55;117.95;;;52.80;;
49548;SDS011;35450;44.518;7.466;2024-01-16T12:28:01;103.95;;;50.83;;
49548;SDS011;35450;44.518;7.466;2024-01-16T12:31:06;107.70;;;52.42;;
49548;SDS011;35450;44.518;7.466;2024-01-16T12:34:10;108.95;;;52.70;;
49548;SDS011;35450;44.518;7.466;2024-01-16T12:37:15;121.72;;;55.75;;
49548;SDS011;35450;44.518;7.466;2024-01-16T12:40:19;108.35;;;50.13;;
49548;SDS011;35450;44.518;7.466;2024-01-16T12:43:24;129.45;;;54.75;;
49548;SDS011;35450;44.518;7.466;2024-01-16T12:46:28;118.05;;;55.15;;
49548;SDS011;35450;44.518;7.466;2024-01-16T12:49:32;120.97;;;52.72;;
49548;SDS011;35450;44.518;7.466;2024-01-16T12:52:36;105.68;;;50.15;;
49548;SDS011;35450;44.518;7.466;2024-01-16T12:55:40;111.90;;;52.13;;
49548;SDS011;35450;44.518;7.466;2024-01-16T12:58:44;122.18;;;55.85;;
49548;SDS011;35450;44.518;7.466;2024-01-16T13:01:49;94.38;;;47.38;;
49548;SDS011;35450;44.518;7.466;2024-01-16T13:04:58;98.47;;;46.35;;
49548;SDS011;35450;44.518;7.466;2024-01-16T13:08:03;103.25;;;46.88;;
49548;SDS011;35450;44.518;7.466;2024-01-16T13:11:08;106.43;;;49.33;;
49548;SDS011;35450;44.518;7.466;2024-01-16T13:14:13;112.60;;;50.03;;
49548;SDS011;35450;44.518;7.466;2024-01-16T13:17:17;110.28;;;49.85;;
49548;SDS011;35450;44.518;7.466;2024-01-16T13:20:20;107.15;;;50.42;;
49548;SDS011;35450;44.518;7.466;2024-01-16T13:23:25;116.70;;;54.35;;
49548;SDS011;35450;44.518;7.466;2024-01-16T13:26:29;112.75;;;51.55;;
49548;SDS011;35450;44.518;7.466;2024-01-16T13:29:35;107.85;;;48.97;;
49548;SDS011;35450;44.518;7.466;2024-01-16T13:32:43;108.85;;;49.85;;
49548;SDS011;35450;44.518;7.466;2024-01-16T13:35:47;131.23;;;58.70;;
49548;SDS011;35450;44.518;7.466;2024-01-16T13:38:51;112.80;;;51.78;;
49548;SDS011;35450;44.518;7.466;2024-01-16T13:41:55;101.50;;;47.47;;
49548;SDS011;35450;44.518;7.466;2024-01-16T13:44:59;102.28;;;47.35;;
49548;SDS011;35450;44.518;7.466;2024-01-16T13:48:03;99.93;;;46.35;;
49548;SDS011;35450;44.518;7.466;2024-01-16T13:51:08;92.32;;;45.05;;
49548;SDS011;35450;44.518;7.466;2024-01-16T13:54:14;81.88;;;42.42;;
49548;SDS011;35450;44.518;7.466;2024-01-16T13:57:18;95.80;;;45.72;;
49548;SDS011;35450;44.518;7.466;2024-01-16T14:00:22;93.63;;;45.72;;
49548;SDS011;35450;44.518;7.466;2024-01-16T14:03:26;96.97;;;43.85;;
49548;SDS011;35450;44.518;7.466;2024-01-16T14:06:30;90.13;;;45.35;;
49548;SDS011;35450;44.518;7.466;2024-01-16T14:09:35;106.68;;;50.17;;
49548;SDS011;35450;44.518;7.466;2024-01-16T14:12:39;104.97;;;50.53;;
49548;SDS011;35450;44.518;7.466;2024-01-16T14:15:45;111.38;;;49.30;;
49548;SDS011;35450;44.518;7.466;2024-01-16T14:18:50;105.20;;;50.15;;
49548;SDS011;35450;44.518;7.466;2024-01-16T14:21:54;100.78;;;47.30;;
49548;SDS011;35450;44.518;7.466;2024-01-16T14:24:58;94.65;;;45.00;;
49548;SDS011;35450;44.518;7.466;2024-01-16T14:28:02;99.30;;;48.72;;
49548;SDS011;35450;44.518;7.466;2024-01-16T14:31:07;98.95;;;45.95;;
49548;SDS011;35450;44.518;7.466;2024-01-16T14:34:11;102.15;;;49.83;;
49548;SDS011;35450;44.518;7.466;2024-01-16T14:37:18;107.68;;;52.20;;
49548;SDS011;35450;44.518;7.466;2024-01-16T14:40:22;98.25;;;47.13;;
49548;SDS011;35450;44.518;7.466;2024-01-16T14:43:29;96.88;;;47.55;;
49548;SDS011;35450;44.518;7.466;2024-01-16T14:46:33;101.32;;;47.30;;
49548;SDS011;35450;44.518;7.466;2024-01-16T14:49:37;105.32;;;48.40;;
49548;SDS011;35450;44.518;7.466;2024-01-16T14:52:41;102.95;;;48.75;;
49548;SDS011;35450;44.518;7.466;2024-01-16T14:55:45;96.53;;;46.40;;
49548;SDS011;35450;44.518;7.466;2024-01-16T14:58:50;99.82;;;48.10;;
49548;SDS011;35450;44.518;7.466;2024-01-16T15:01:54;105.80;;;51.40;;
49548;SDS011;35450;44.518;7.466;2024-01-16T15:04:58;111.15;;;51.05;;
49548;SDS011;35450;44.518;7.466;2024-01-16T15:08:02;99.57;;;49.10;;
49548;SDS011;35450;44.518;7.466;2024-01-16T15:11:07;105.45;;;50.13;;
49548;SDS011;35450;44.518;7.466;2024-01-16T15:14:11;118.30;;;51.47;;
49548;SDS011;35450;44.518;7.466;2024-01-16T15:17:16;108.22;;;48.72;;
49548;SDS011;35450;44.518;7.466;2024-01-16T15:20:20;99.13;;;50.22;;
49548;SDS011;35450;44.518;7.466;2024-01-16T15:23:24;101.70;;;49.53;;
49548;SDS011;35450;44.518;7.466;2024-01-16T15:26:28;113.25;;;51.58;;
49548;SDS011;35450;44.518;7.466;2024-01-16T15:29:34;107.10;;;50.45;;
49548;SDS011;35450;44.518;7.466;2024-01-16T15:32:38;106.10;;;52.58;;
49548;SDS011;35450;44.518;7.466;2024-01-16T15:35:42;98.65;;;49.35;;
49548;SDS011;35450;44.518;7.466;2024-01-16T15:38:46;110.50;;;53.08;;
49548;SDS011;35450;44.518;7.466;2024-01-16T15:41:50;105.65;;;50.53;;
49548;SDS011;35450;44.518;7.466;2024-01-16T15:44:54;121.18;;;60.10;;
49548;SDS011;35450;44.518;7.466;2024-01-16T15:47:58;139.85;;;58.95;;
49548;SDS011;35450;44.518;7.466;2024-01-16T15:51:02;110.40;;;51.72;;
49548;SDS011;35450;44.518;7.466;2024-01-16T15:54:10;121.05;;;56.65;;
49548;SDS011;35450;44.518;7.466;2024-01-16T15:57:15;136.48;;;56.70;;
49548;SDS011;35450;44.518;7.466;2024-01-16T16:00:19;115.00;;;50.75;;
49548;SDS011;35450;44.518;7.466;2024-01-16T16:03:23;108.32;;;50.95;;
49548;SDS011;35450;44.518;7.466;2024-01-16T16:06:27;97.95;;;50.33;;
49548;SDS011;35450;44.518;7.466;2024-01-16T16:09:31;100.93;;;46.83;;
49548;SDS011;35450;44.518;7.466;2024-01-16T16:12:36;94.80;;;46.42;;
49548;SDS011;35450;44.518;7.466;2024-01-16T16:15:40;97.07;;;47.95;;
49548;SDS011;35450;44.518;7.466;2024-01-16T16:18:44;91.63;;;48.20;;
49548;SDS011;35450;44.518;7.466;2024-01-16T16:21:49;98.40;;;48.72;;
49548;SDS011;35450;44.518;7.466;2024-01-16T16:24:55;94.45;;;47.78;;
49548;SDS011;35450;44.518;7.466;2024-01-16T16:28:01;100.53;;;49.13;;
49548;SDS011;35450;44.518;7.466;2024-01-16T16:31:05;99.80;;;49.42;;
49548;SDS011;35450;44.518;7.466;2024-01-16T16:34:10;99.70;;;48.47;;
49548;SDS011;35450;44.518;7.466;2024-01-16T16:37:17;97.82;;;48.03;;
49548;SDS011;35450;44.518;7.466;2024-01-16T16:40:22;91.80;;;46.20;;
49548;SDS011;35450;44.518;7.466;2024-01-16T16:43:26;95.60;;;48.47;;
49548;SDS011;35450;44.518;7.466;2024-01-16T16:46:30;96.05;;;47.60;;
49548;SDS011;35450;44.518;7.466;2024-01-16T16:49:34;93.03;;;47.90;;
49548;SDS011;35450;44.518;7.466;2024-01-16T16:52:38;104.88;;;51.50;;
49548;SDS011;35450;44.518;7.466;2024-01-16T16:55:42;117.55;;;53.67;;
49548;SDS011;35450;44.518;7.466;2024-01-16T16:58:49;101.85;;;51.47;;
49548;SDS011;35450;44.518;7.466;2024-01-16T17:01:54;109.07;;;53.70;;
49548;SDS011;35450;44.518;7.466;2024-01-16T17:04:58;86.40;;;44.35;;
49548;SDS011;35450;44.518;7.466;2024-01-16T17:08:03;96.35;;;48.20;;
49548;SDS011;35450;44.518;7.466;2024-01-16T17:11:07;90.88;;;45.78;;
49548;SDS011;35450;44.518;7.466;2024-01-16T17:14:19;96.05;;;43.30;;
49548;SDS011;35450;44.518;7.466;2024-01-16T17:17:23;88.30;;;44.25;;
49548;SDS011;35450;44.518;7.466;2024-01-16T17:20:26;87.63;;;43.42;;
49548;SDS011;35450;44.518;7.466;2024-01-16T17:23:32;129.35;;;59.47;;
49548;SDS011;35450;44.518;7.466;2024-01-16T17:26:40;88.95;;;43.70;;
49548;SDS011;35450;44.518;7.466;2024-01-16T17:29:45;78.40;;;39.58;;
49548;SDS011;35450;44.518;7.466;2024-01-16T17:32:49;80.32;;;42.17;;
49548;SDS011;35450;44.518;7.466;2024-01-16T17:35:53;78.90;;;40.28;;
49548;SDS011;35450;44.518;7.466;2024-01-16T17:39:03;88.80;;;42.40;;
49548;SDS011;35450;44.518;7.466;2024-01-16T17:42:06;87.07;;;41.10;;
49548;SDS011;35450;44.518;7.466;2024-01-16T17:45:10;91.35;;;46.67;;
49548;SDS011;35450;44.518;7.466;2024-01-16T17:48:15;91.28;;;45.25;;
49548;SDS011;35450;44.518;7.466;2024-01-16T17:51:20;101.93;;;49.30;;
49548;SDS011;35450;44.518;7.466;2024-01-16T17:54:24;87.28;;;44.70;;
49548;SDS011;35450;44.518;7.466;2024-01-16T17:57:29;79.00;;;39.55;;
49548;SDS011;35450;44.518;7.466;2024-01-16T18:00:33;80.15;;;37.92;;
49548;SDS011;35450;44.518;7.466;2024-01-16T18:03:37;78.35;;;38.95;;
49548;SDS011;35450;44.518;7.466;2024-01-16T18:06:45;79.57;;;41.50;;
49548;SDS011;35450;44.518;7.466;2024-01-16T18:09:51;75.43;;;37.97;;
49548;SDS011;35450;44.518;7.466;2024-01-16T18:12:55;80.55;;;39.17;;